sensor_id;sensor_type;location;lat;lon;timestamp;temperature;humidity
30047;DHT22;16878;52.542;13.426;2023-01-08T00:00:29;8.70;99.90
30047;DHT22;16878;52.542;13.426;2023-01-08T00:02:54;8.70;99.90
30047;DHT22;16878;52.542;13.426;2023-01-08T00:05:20;8.60;99.90
30047;DHT22;16878;52.542;13.426;2023-01-08T00:07:45;8.60;99.90
30047;DHT22;16878;52.542;13.426;2023-01-08T00:10:11;8.50;99.90
30047;DHT22;16878;52.542;13.426;2023-01-08T00:12:37;8.50;99.90
30047;DHT22;16878;52.542;13.426;2023-01-08T00:15:02;8.50;99.90
30047;DHT22;16878;52.542;13.426;2023-01-08T00:17:32;8.50;99.90
30047;DHT22;16878;52.542;13.426;2023-01-08T00:19:57;8.50;99.90
30047;DHT22;16878;52.542;13.426;2023-01-08T00:22:23;8.50;99.90
30047;DHT22;16878;52.542;13.426;2023-01-08T00:24:49;8.50;99.90
30047;DHT22;16878;52.542;13.426;2023-01-08T00:27:14;8.50;99.90
30047;DHT22;16878;52.542;13.426;2023-01-08T00:29:40;8.50;99.90
30047;DHT22;16878;52.542;13.426;2023-01-08T00:32:05;8.50;99.90
30047;DHT22;16878;52.542;13.426;2023-01-08T00:34:31;8.40;99.90
30047;DHT22;16878;52.542;13.426;2023-01-08T00:36:56;8.40;99.90
30047;DHT22;16878;52.542;13.426;2023-01-08T00:39:22;8.40;99.90
30047;DHT22;16878;52.542;13.426;2023-01-08T00:41:47;8.40;99.90
30047;DHT22;16878;52.542;13.426;2023-01-08T00:44:13;8.40;99.90
30047;DHT22;16878;52.542;13.426;2023-01-08T00:46:39;8.30;99.90
30047;DHT22;16878;52.542;13.426;2023-01-08T00:49:04;8.30;99.90
30047;DHT22;16878;52.542;13.426;2023-01-08T00:51:30;8.30;99.90
30047;DHT22;16878;52.542;13.426;2023-01-08T00:53:56;8.20;99.90
30047;DHT22;16878;52.542;13.426;2023-01-08T00:56:21;8.20;99.90
30047;DHT22;16878;52.542;13.426;2023-01-08T00:58:47;8.20;99.90
30047;DHT22;16878;52.542;13.426;2023-01-08T01:01:13;8.10;99.90
30047;DHT22;16878;52.542;13.426;2023-01-08T01:03:38;8.10;99.90
30047;DHT22;16878;52.542;13.426;2023-01-08T01:06:04;8.10;99.90
30047;DHT22;16878;52.542;13.426;2023-01-08T01:08:30;8.10;99.90
30047;DHT22;16878;52.542;13.426;2023-01-08T01:10:56;8.10;99.90
30047;DHT22;16878;52.542;13.426;2023-01-08T01:13:21;8.00;99.90
30047;DHT22;16878;52.542;13.426;2023-01-08T01:15:59;8.00;99.90
30047;DHT22;16878;52.542;13.426;2023-01-08T01:18:25;8.00;99.90
30047;DHT22;16878;52.542;13.426;2023-01-08T01:20:50;7.90;99.90
30047;DHT22;16878;52.542;13.426;2023-01-08T01:23:16;8.00;99.90
30047;DHT22;16878;52.542;13.426;2023-01-08T01:25:41;7.90;99.90
30047;DHT22;16878;52.542;13.426;2023-01-08T01:28:07;7.90;99.90
30047;DHT22;16878;52.542;13.426;2023-01-08T01:30:33;7.90;99.90
30047;DHT22;16878;52.542;13.426;2023-01-08T01:32:58;7.90;99.90
30047;DHT22;16878;52.542;13.426;2023-01-08T01:35:24;7.90;99.90
30047;DHT22;16878;52.542;13.426;2023-01-08T01:37:49;7.80;99.90
30047;DHT22;16878;52.542;13.426;2023-01-08T01:40:15;7.80;99.90
30047;DHT22;16878;52.542;13.426;2023-01-08T01:42:40;7.70;99.90
30047;DHT22;16878;52.542;13.426;2023-01-08T01:47:37;7.70;99.90
30047;DHT22;16878;52.542;13.426;2023-01-08T01:50:07;7.60;99.90
30047;DHT22;16878;52.542;13.426;2023-01-08T01:52:34;7.60;99.90
30047;DHT22;16878;52.542;13.426;2023-01-08T01:55:02;7.70;99.90
30047;DHT22;16878;52.542;13.426;2023-01-08T01:57:29;7.60;99.90
30047;DHT22;16878;52.542;13.426;2023-01-08T01:59:55;7.60;99.90
30047;DHT22;16878;52.542;13.426;2023-01-08T02:02:22;7.60;99.90
30047;DHT22;16878;52.542;13.426;2023-01-08T02:04:48;7.60;99.90
30047;DHT22;16878;52.542;13.426;2023-01-08T02:09:47;7.60;99.90
30047;DHT22;16878;52.542;13.426;2023-01-08T02:17:29;7.50;99.90
30047;DHT22;16878;52.542;13.426;2023-01-08T02:19:57;7.40;99.90
30047;DHT22;16878;52.542;13.426;2023-01-08T02:24:53;7.30;99.90
30047;DHT22;16878;52.542;13.426;2023-01-08T02:27:20;7.30;99.90
30047;DHT22;16878;52.542;13.426;2023-01-08T02:29:48;7.30;99.90
30047;DHT22;16878;52.542;13.426;2023-01-08T02:32:15;7.20;99.90
30047;DHT22;16878;52.542;13.426;2023-01-08T02:34:41;7.20;99.90
30047;DHT22;16878;52.542;13.426;2023-01-08T02:37:07;7.20;99.90
30047;DHT22;16878;52.542;13.426;2023-01-08T02:47:20;7.10;99.90
30047;DHT22;16878;52.542;13.426;2023-01-08T02:49:46;7.10;99.90
30047;DHT22;16878;52.542;13.426;2023-01-08T02:52:15;7.00;99.90
30047;DHT22;16878;52.542;13.426;2023-01-08T02:54:42;7.00;99.90
30047;DHT22;16878;52.542;13.426;2023-01-08T02:57:10;7.00;99.90
30047;DHT22;16878;52.542;13.426;2023-01-08T02:59:36;7.00;99.90
30047;DHT22;16878;52.542;13.426;2023-01-08T03:02:04;7.00;99.90
30047;DHT22;16878;52.542;13.426;2023-01-08T03:04:30;6.90;99.90
30047;DHT22;16878;52.542;13.426;2023-01-08T03:06:58;6.90;99.90
30047;DHT22;16878;52.542;13.426;2023-01-08T03:09:24;6.90;99.90
30047;DHT22;16878;52.542;13.426;2023-01-08T03:14:26;6.80;99.90
30047;DHT22;16878;52.542;13.426;2023-01-08T03:17:27;6.80;99.90
30047;DHT22;16878;52.542;13.426;2023-01-08T03:19:47;6.80;99.90
30047;DHT22;16878;52.542;13.426;2023-01-08T03:22:17;6.80;99.90
30047;DHT22;16878;52.542;13.426;2023-01-08T03:24:44;6.80;99.90
30047;DHT22;16878;52.542;13.426;2023-01-08T03:27:11;6.80;99.90
30047;DHT22;16878;52.542;13.426;2023-01-08T03:29:38;6.80;99.90
30047;DHT22;16878;52.542;13.426;2023-01-08T03:32:05;6.80;99.90
30047;DHT22;16878;52.542;13.426;2023-01-08T03:34:31;6.80;99.90
30047;DHT22;16878;52.542;13.426;2023-01-08T03:36:59;6.80;99.90
30047;DHT22;16878;52.542;13.426;2023-01-08T03:39:31;6.80;99.90
30047;DHT22;16878;52.542;13.426;2023-01-08T03:41:59;6.80;99.90
30047;DHT22;16878;52.542;13.426;2023-01-08T03:44:26;6.70;99.90
30047;DHT22;16878;52.542;13.426;2023-01-08T03:46:53;6.70;99.90
30047;DHT22;16878;52.542;13.426;2023-01-08T03:49:19;6.70;99.90
30047;DHT22;16878;52.542;13.426;2023-01-08T03:51:46;6.70;99.90
30047;DHT22;16878;52.542;13.426;2023-01-08T03:54:13;6.70;99.90
30047;DHT22;16878;52.542;13.426;2023-01-08T03:56:39;6.70;99.90
30047;DHT22;16878;52.542;13.426;2023-01-08T03:59:04;6.70;99.90
30047;DHT22;16878;52.542;13.426;2023-01-08T04:01:30;6.70;99.90
30047;DHT22;16878;52.542;13.426;2023-01-08T04:03:55;6.70;99.90
30047;DHT22;16878;52.542;13.426;2023-01-08T04:06:21;6.70;99.90
30047;DHT22;16878;52.542;13.426;2023-01-08T04:08:47;6.70;99.90
30047;DHT22;16878;52.542;13.426;2023-01-08T04:11:12;6.60;99.90
30047;DHT22;16878;52.542;13.426;2023-01-08T04:13:38;6.60;99.90
30047;DHT22;16878;52.542;13.426;2023-01-08T04:16:04;6.60;99.90
30047;DHT22;16878;52.542;13.426;2023-01-08T04:18:30;6.60;99.90
30047;DHT22;16878;52.542;13.426;2023-01-08T04:20:56;6.60;99.90
30047;DHT22;16878;52.542;13.426;2023-01-08T04:23:21;6.60;99.90
30047;DHT22;16878;52.542;13.426;2023-01-08T04:25:47;6.60;99.90
30047;DHT22;16878;52.542;13.426;2023-01-08T04:28:12;6.50;99.90
30047;DHT22;16878;52.542;13.426;2023-01-08T04:30:38;6.60;99.90
30047;DHT22;16878;52.542;13.426;2023-01-08T04:33:03;6.60;99.90
30047;DHT22;16878;52.542;13.426;2023-01-08T04:35:29;6.60;99.90
30047;DHT22;16878;52.542;13.426;2023-01-08T04:37:54;6.60;99.90
30047;DHT22;16878;52.542;13.426;2023-01-08T04:40:20;6.60;99.90
30047;DHT22;16878;52.542;13.426;2023-01-08T04:42:45;6.50;99.90
30047;DHT22;16878;52.542;13.426;2023-01-08T04:45:11;6.50;99.90
30047;DHT22;16878;52.542;13.426;2023-01-08T04:47:36;6.50;99.90
30047;DHT22;16878;52.542;13.426;2023-01-08T04:50:02;6.50;99.90
30047;DHT22;16878;52.542;13.426;2023-01-08T04:52:28;6.50;99.90
30047;DHT22;16878;52.542;13.426;2023-01-08T04:54:53;6.50;99.90
30047;DHT22;16878;52.542;13.426;2023-01-08T04:57:19;6.50;99.90
30047;DHT22;16878;52.542;13.426;2023-01-08T04:59:44;6.40;99.90
30047;DHT22;16878;52.542;13.426;2023-01-08T05:02:10;6.40;99.90
30047;DHT22;16878;52.542;13.426;2023-01-08T05:04:35;6.50;99.90
30047;DHT22;16878;52.542;13.426;2023-01-08T05:07:02;6.50;99.90
30047;DHT22;16878;52.542;13.426;2023-01-08T05:09:28;6.50;99.90
30047;DHT22;16878;52.542;13.426;2023-01-08T05:11:53;6.60;99.90
30047;DHT22;16878;52.542;13.426;2023-01-08T05:14:19;6.70;99.90
30047;DHT22;16878;52.542;13.426;2023-01-08T05:16:44;6.70;99.90
30047;DHT22;16878;52.542;13.426;2023-01-08T05:19:10;6.70;99.90
30047;DHT22;16878;52.542;13.426;2023-01-08T05:21:35;6.80;99.90
30047;DHT22;16878;52.542;13.426;2023-01-08T05:24:01;6.80;99.90
30047;DHT22;16878;52.542;13.426;2023-01-08T05:26:26;6.80;99.90
30047;DHT22;16878;52.542;13.426;2023-01-08T05:28:52;6.80;99.90
30047;DHT22;16878;52.542;13.426;2023-01-08T05:31:17;6.80;99.90
30047;DHT22;16878;52.542;13.426;2023-01-08T05:33:43;6.70;99.90
30047;DHT22;16878;52.542;13.426;2023-01-08T05:36:10;6.80;99.90
30047;DHT22;16878;52.542;13.426;2023-01-08T05:38:36;6.80;99.90
30047;DHT22;16878;52.542;13.426;2023-01-08T05:41:01;6.80;99.90
30047;DHT22;16878;52.542;13.426;2023-01-08T05:43:27;6.90;99.90
30047;DHT22;16878;52.542;13.426;2023-01-08T05:45:53;6.90;99.90
30047;DHT22;16878;52.542;13.426;2023-01-08T05:48:19;7.00;99.90
30047;DHT22;16878;52.542;13.426;2023-01-08T05:50:44;7.00;99.90
30047;DHT22;16878;52.542;13.426;2023-01-08T05:53:10;7.10;99.90
30047;DHT22;16878;52.542;13.426;2023-01-08T05:55:36;7.10;99.90
30047;DHT22;16878;52.542;13.426;2023-01-08T05:58:02;7.20;99.90
30047;DHT22;16878;52.542;13.426;2023-01-08T06:00:28;7.20;99.90
30047;DHT22;16878;52.542;13.426;2023-01-08T06:02:53;7.20;99.90
30047;DHT22;16878;52.542;13.426;2023-01-08T06:05:19;7.30;99.90
30047;DHT22;16878;52.542;13.426;2023-01-08T06:07:44;7.30;99.90
30047;DHT22;16878;52.542;13.426;2023-01-08T06:10:10;7.40;99.90
30047;DHT22;16878;52.542;13.426;2023-01-08T06:12:35;7.40;99.90
30047;DHT22;16878;52.542;13.426;2023-01-08T06:15:02;7.40;99.90
30047;DHT22;16878;52.542;13.426;2023-01-08T06:17:27;7.40;99.90
30047;DHT22;16878;52.542;13.426;2023-01-08T06:19:53;7.40;99.90
30047;DHT22;16878;52.542;13.426;2023-01-08T06:22:18;7.50;99.90
30047;DHT22;16878;52.542;13.426;2023-01-08T06:24:44;7.50;99.90
30047;DHT22;16878;52.542;13.426;2023-01-08T06:27:09;7.50;99.90
30047;DHT22;16878;52.542;13.426;2023-01-08T06:29:35;7.50;99.90
30047;DHT22;16878;52.542;13.426;2023-01-08T06:32:00;7.50;99.90
30047;DHT22;16878;52.542;13.426;2023-01-08T06:34:26;7.50;99.90
30047;DHT22;16878;52.542;13.426;2023-01-08T06:36:51;7.50;99.90
30047;DHT22;16878;52.542;13.426;2023-01-08T06:39:17;7.50;99.90
30047;DHT22;16878;52.542;13.426;2023-01-08T06:41:43;7.50;99.90
30047;DHT22;16878;52.542;13.426;2023-01-08T06:44:08;7.50;99.90
30047;DHT22;16878;52.542;13.426;2023-01-08T06:46:34;7.50;99.90
30047;DHT22;16878;52.542;13.426;2023-01-08T06:49:07;7.50;99.90
30047;DHT22;16878;52.542;13.426;2023-01-08T06:51:33;7.50;99.90
30047;DHT22;16878;52.542;13.426;2023-01-08T06:53:59;7.50;99.90
30047;DHT22;16878;52.542;13.426;2023-01-08T06:56:24;7.50;99.90
30047;DHT22;16878;52.542;13.426;2023-01-08T06:58:50;7.50;99.90
30047;DHT22;16878;52.542;13.426;2023-01-08T07:01:15;7.60;99.90
30047;DHT22;16878;52.542;13.426;2023-01-08T07:03:41;7.60;99.90
30047;DHT22;16878;52.542;13.426;2023-01-08T07:06:14;7.60;99.90
30047;DHT22;16878;52.542;13.426;2023-01-08T07:08:40;7.60;99.90
30047;DHT22;16878;52.542;13.426;2023-01-08T07:11:06;7.60;99.90
30047;DHT22;16878;52.542;13.426;2023-01-08T07:13:32;7.70;99.90
30047;DHT22;16878;52.542;13.426;2023-01-08T07:15:57;7.70;99.90
30047;DHT22;16878;52.542;13.426;2023-01-08T07:18:23;7.70;99.90
30047;DHT22;16878;52.542;13.426;2023-01-08T07:20:48;7.70;99.90
30047;DHT22;16878;52.542;13.426;2023-01-08T07:23:14;7.70;99.90
30047;DHT22;16878;52.542;13.426;2023-01-08T07:25:39;7.70;99.90
30047;DHT22;16878;52.542;13.426;2023-01-08T07:28:05;7.70;99.90
30047;DHT22;16878;52.542;13.426;2023-01-08T07:30:34;7.80;99.90
30047;DHT22;16878;52.542;13.426;2023-01-08T07:33:00;7.80;99.90
30047;DHT22;16878;52.542;13.426;2023-01-08T07:35:26;7.80;99.90
30047;DHT22;16878;52.542;13.426;2023-01-08T07:37:52;7.80;99.90
30047;DHT22;16878;52.542;13.426;2023-01-08T07:40:17;7.90;99.90
30047;DHT22;16878;52.542;13.426;2023-01-08T07:42:43;7.90;99.90
30047;DHT22;16878;52.542;13.426;2023-01-08T07:45:08;7.90;99.90
30047;DHT22;16878;52.542;13.426;2023-01-08T07:47:34;7.90;99.90
30047;DHT22;16878;52.542;13.426;2023-01-08T07:50:00;7.90;99.90
30047;DHT22;16878;52.542;13.426;2023-01-08T07:52:25;7.90;99.90
30047;DHT22;16878;52.542;13.426;2023-01-08T07:54:51;7.90;99.90
30047;DHT22;16878;52.542;13.426;2023-01-08T07:57:16;7.90;99.90
30047;DHT22;16878;52.542;13.426;2023-01-08T07:59:42;7.90;99.90
30047;DHT22;16878;52.542;13.426;2023-01-08T08:02:09;7.90;99.90
30047;DHT22;16878;52.542;13.426;2023-01-08T08:04:35;7.90;99.90
30047;DHT22;16878;52.542;13.426;2023-01-08T08:07:00;7.90;99.90
30047;DHT22;16878;52.542;13.426;2023-01-08T08:09:26;7.90;99.90
30047;DHT22;16878;52.542;13.426;2023-01-08T08:11:51;8.00;99.90
30047;DHT22;16878;52.542;13.426;2023-01-08T08:14:17;7.90;99.90
30047;DHT22;16878;52.542;13.426;2023-01-08T08:16:42;8.00;99.90
30047;DHT22;16878;52.542;13.426;2023-01-08T08:19:09;8.00;99.90
30047;DHT22;16878;52.542;13.426;2023-01-08T08:21:40;8.00;99.90
30047;DHT22;16878;52.542;13.426;2023-01-08T08:24:06;8.00;99.90
30047;DHT22;16878;52.542;13.426;2023-01-08T08:26:32;8.00;99.90
30047;DHT22;16878;52.542;13.426;2023-01-08T08:28:57;8.00;99.90
30047;DHT22;16878;52.542;13.426;2023-01-08T08:31:23;8.00;99.90
30047;DHT22;16878;52.542;13.426;2023-01-08T08:33:48;8.00;99.90
30047;DHT22;16878;52.542;13.426;2023-01-08T08:36:14;8.00;99.90
30047;DHT22;16878;52.542;13.426;2023-01-08T08:38:39;8.00;99.90
30047;DHT22;16878;52.542;13.426;2023-01-08T08:41:08;8.00;99.90
30047;DHT22;16878;52.542;13.426;2023-01-08T08:43:34;8.00;99.90
30047;DHT22;16878;52.542;13.426;2023-01-08T08:46:00;8.00;99.90
30047;DHT22;16878;52.542;13.426;2023-01-08T08:48:25;8.10;99.90
30047;DHT22;16878;52.542;13.426;2023-01-08T08:50:51;8.10;99.90
30047;DHT22;16878;52.542;13.426;2023-01-08T08:53:16;8.10;99.90
30047;DHT22;16878;52.542;13.426;2023-01-08T08:55:42;8.10;99.90
30047;DHT22;16878;52.542;13.426;2023-01-08T08:58:09;8.20;99.90
30047;DHT22;16878;52.542;13.426;2023-01-08T09:00:37;8.20;99.90
30047;DHT22;16878;52.542;13.426;2023-01-08T09:03:03;8.20;99.90
30047;DHT22;16878;52.542;13.426;2023-01-08T09:05:29;8.20;99.90
30047;DHT22;16878;52.542;13.426;2023-01-08T09:07:55;8.20;99.90
30047;DHT22;16878;52.542;13.426;2023-01-08T09:10:21;8.30;99.90
30047;DHT22;16878;52.542;13.426;2023-01-08T09:12:47;8.30;99.90
30047;DHT22;16878;52.542;13.426;2023-01-08T09:15:12;8.30;99.90
30047;DHT22;16878;52.542;13.426;2023-01-08T09:17:38;8.30;99.90
30047;DHT22;16878;52.542;13.426;2023-01-08T09:20:04;8.30;99.90
30047;DHT22;16878;52.542;13.426;2023-01-08T09:22:30;8.40;99.90
30047;DHT22;16878;52.542;13.426;2023-01-08T09:24:55;8.40;99.90
30047;DHT22;16878;52.542;13.426;2023-01-08T09:27:21;8.40;99.90
30047;DHT22;16878;52.542;13.426;2023-01-08T09:29:46;8.50;99.90
30047;DHT22;16878;52.542;13.426;2023-01-08T09:32:12;8.50;99.90
30047;DHT22;16878;52.542;13.426;2023-01-08T09:34:37;8.50;99.90
30047;DHT22;16878;52.542;13.426;2023-01-08T09:37:03;8.60;99.90
30047;DHT22;16878;52.542;13.426;2023-01-08T09:39:29;8.60;99.90
30047;DHT22;16878;52.542;13.426;2023-01-08T09:41:54;8.60;99.90
30047;DHT22;16878;52.542;13.426;2023-01-08T09:44:21;8.60;99.90
30047;DHT22;16878;52.542;13.426;2023-01-08T09:46:47;8.50;99.90
30047;DHT22;16878;52.542;13.426;2023-01-08T09:49:32;8.60;99.90
30047;DHT22;16878;52.542;13.426;2023-01-08T09:52:00;8.60;99.90
30047;DHT22;16878;52.542;13.426;2023-01-08T09:54:26;8.60;99.90
30047;DHT22;16878;52.542;13.426;2023-01-08T09:56:52;8.60;99.90
30047;DHT22;16878;52.542;13.426;2023-01-08T09:59:18;8.60;99.90
30047;DHT22;16878;52.542;13.426;2023-01-08T10:01:44;8.60;99.90
30047;DHT22;16878;52.542;13.426;2023-01-08T10:04:22;8.60;99.90
30047;DHT22;16878;52.542;13.426;2023-01-08T10:07:01;8.60;99.90
30047;DHT22;16878;52.542;13.426;2023-01-08T10:09:30;8.60;99.90
30047;DHT22;16878;52.542;13.426;2023-01-08T10:11:57;8.60;99.90
30047;DHT22;16878;52.542;13.426;2023-01-08T10:14:25;8.60;99.90
30047;DHT22;16878;52.542;13.426;2023-01-08T10:16:54;8.60;99.90
30047;DHT22;16878;52.542;13.426;2023-01-08T10:19:20;8.50;99.90
30047;DHT22;16878;52.542;13.426;2023-01-08T10:21:46;8.60;99.90
30047;DHT22;16878;52.542;13.426;2023-01-08T10:24:12;8.60;99.90
30047;DHT22;16878;52.542;13.426;2023-01-08T10:26:41;8.60;99.90
30047;DHT22;16878;52.542;13.426;2023-01-08T10:31:51;8.60;99.90
30047;DHT22;16878;52.542;13.426;2023-01-08T10:34:23;8.60;99.90
30047;DHT22;16878;52.542;13.426;2023-01-08T10:36:49;8.60;99.90
30047;DHT22;16878;52.542;13.426;2023-01-08T10:39:20;8.60;99.90
30047;DHT22;16878;52.542;13.426;2023-01-08T10:41:47;8.60;99.90
30047;DHT22;16878;52.542;13.426;2023-01-08T10:44:15;8.60;99.90
30047;DHT22;16878;52.542;13.426;2023-01-08T10:46:42;8.60;99.90
30047;DHT22;16878;52.542;13.426;2023-01-08T10:52:03;8.80;99.90
30047;DHT22;16878;52.542;13.426;2023-01-08T10:54:35;8.80;99.90
30047;DHT22;16878;52.542;13.426;2023-01-08T10:57:02;8.80;99.90
30047;DHT22;16878;52.542;13.426;2023-01-08T10:59:28;8.80;99.90
30047;DHT22;16878;52.542;13.426;2023-01-08T11:01:57;8.80;99.90
30047;DHT22;16878;52.542;13.426;2023-01-08T11:04:27;8.80;99.90
30047;DHT22;16878;52.542;13.426;2023-01-08T11:06:53;8.80;99.90
30047;DHT22;16878;52.542;13.426;2023-01-08T11:09:26;8.70;99.90
30047;DHT22;16878;52.542;13.426;2023-01-08T11:11:52;8.80;99.90
30047;DHT22;16878;52.542;13.426;2023-01-08T11:16:46;8.70;99.90
30047;DHT22;16878;52.542;13.426;2023-01-08T11:19:16;8.70;99.90
30047;DHT22;16878;52.542;13.426;2023-01-08T11:21:53;8.80;99.90
30047;DHT22;16878;52.542;13.426;2023-01-08T11:24:20;8.90;99.90
30047;DHT22;16878;52.542;13.426;2023-01-08T11:26:51;9.00;99.90
30047;DHT22;16878;52.542;13.426;2023-01-08T11:29:21;9.10;99.90
30047;DHT22;16878;52.542;13.426;2023-01-08T11:37:24;9.10;99.90
30047;DHT22;16878;52.542;13.426;2023-01-08T11:39:51;9.10;99.90
30047;DHT22;16878;52.542;13.426;2023-01-08T11:42:37;9.20;99.90
30047;DHT22;16878;52.542;13.426;2023-01-08T11:45:17;9.20;99.90
30047;DHT22;16878;52.542;13.426;2023-01-08T11:47:50;9.10;99.90
30047;DHT22;16878;52.542;13.426;2023-01-08T11:50:31;9.10;99.90
30047;DHT22;16878;52.542;13.426;2023-01-08T11:55:50;9.10;99.90
30047;DHT22;16878;52.542;13.426;2023-01-08T11:58:21;9.10;99.90
30047;DHT22;16878;52.542;13.426;2023-01-08T12:08:15;9.20;99.90
30047;DHT22;16878;52.542;13.426;2023-01-08T12:13:51;9.20;99.90
30047;DHT22;16878;52.542;13.426;2023-01-08T12:34:35;9.40;99.90
30047;DHT22;16878;52.542;13.426;2023-01-08T12:37:04;9.40;99.90
30047;DHT22;16878;52.542;13.426;2023-01-08T12:39:32;9.40;99.90
30047;DHT22;16878;52.542;13.426;2023-01-08T12:42:10;9.50;99.90
30047;DHT22;16878;52.542;13.426;2023-01-08T12:44:37;9.50;99.90
30047;DHT22;16878;52.542;13.426;2023-01-08T12:47:04;9.40;99.90
30047;DHT22;16878;52.542;13.426;2023-01-08T12:49:40;9.30;99.90
30047;DHT22;16878;52.542;13.426;2023-01-08T12:55:15;9.30;99.90
30047;DHT22;16878;52.542;13.426;2023-01-08T12:57:52;9.30;99.90
30047;DHT22;16878;52.542;13.426;2023-01-08T13:00:42;9.20;99.90
30047;DHT22;16878;52.542;13.426;2023-01-08T13:03:10;9.20;99.90
30047;DHT22;16878;52.542;13.426;2023-01-08T13:05:39;9.20;99.90
30047;DHT22;16878;52.542;13.426;2023-01-08T13:08:20;9.20;99.90
30047;DHT22;16878;52.542;13.426;2023-01-08T13:10:52;9.20;99.90
30047;DHT22;16878;52.542;13.426;2023-01-08T13:13:28;9.20;99.90
30047;DHT22;16878;52.542;13.426;2023-01-08T13:21:15;9.10;99.90
30047;DHT22;16878;52.542;13.426;2023-01-08T13:23:41;9.10;99.90
30047;DHT22;16878;52.542;13.426;2023-01-08T13:26:07;9.10;99.90
30047;DHT22;16878;52.542;13.426;2023-01-08T13:31:37;9.10;99.90
30047;DHT22;16878;52.542;13.426;2023-01-08T13:33:53;9.10;99.90
30047;DHT22;16878;52.542;13.426;2023-01-08T13:41:26;9.00;99.90
30047;DHT22;16878;52.542;13.426;2023-01-08T13:44:03;9.00;99.90
30047;DHT22;16878;52.542;13.426;2023-01-08T13:46:30;8.90;99.90
30047;DHT22;16878;52.542;13.426;2023-01-08T13:49:03;8.90;99.90
30047;DHT22;16878;52.542;13.426;2023-01-08T13:54:14;8.90;99.90
30047;DHT22;16878;52.542;13.426;2023-01-08T13:56:42;8.90;99.90
30047;DHT22;16878;52.542;13.426;2023-01-08T14:01:55;8.90;99.90
30047;DHT22;16878;52.542;13.426;2023-01-08T14:04:23;8.80;99.90
30047;DHT22;16878;52.542;13.426;2023-01-08T14:06:49;8.80;99.90
30047;DHT22;16878;52.542;13.426;2023-01-08T14:09:19;8.80;99.90
30047;DHT22;16878;52.542;13.426;2023-01-08T14:11:46;8.80;99.90
30047;DHT22;16878;52.542;13.426;2023-01-08T14:14:13;8.80;99.90
30047;DHT22;16878;52.542;13.426;2023-01-08T14:16:39;8.80;99.90
30047;DHT22;16878;52.542;13.426;2023-01-08T14:19:10;8.80;99.90
30047;DHT22;16878;52.542;13.426;2023-01-08T14:21:39;8.70;99.90
30047;DHT22;16878;52.542;13.426;2023-01-08T14:24:04;8.70;99.90
30047;DHT22;16878;52.542;13.426;2023-01-08T14:26:34;8.70;99.90
30047;DHT22;16878;52.542;13.426;2023-01-08T14:29:00;8.70;99.90
30047;DHT22;16878;52.542;13.426;2023-01-08T14:31:27;8.70;99.90
30047;DHT22;16878;52.542;13.426;2023-01-08T14:33:54;8.70;99.90
30047;DHT22;16878;52.542;13.426;2023-01-08T14:36:20;8.60;99.90
30047;DHT22;16878;52.542;13.426;2023-01-08T14:38:46;8.60;99.90
30047;DHT22;16878;52.542;13.426;2023-01-08T14:41:16;8.60;99.90
30047;DHT22;16878;52.542;13.426;2023-01-08T14:43:45;8.60;99.90
30047;DHT22;16878;52.542;13.426;2023-01-08T14:48:42;8.60;99.90
30047;DHT22;16878;52.542;13.426;2023-01-08T14:51:09;8.60;99.90
30047;DHT22;16878;52.542;13.426;2023-01-08T14:56:01;8.60;99.90
30047;DHT22;16878;52.542;13.426;2023-01-08T14:58:29;8.60;99.90
30047;DHT22;16878;52.542;13.426;2023-01-08T15:01:00;8.60;99.90
30047;DHT22;16878;52.542;13.426;2023-01-08T15:03:31;8.60;99.90
30047;DHT22;16878;52.542;13.426;2023-01-08T15:05:57;8.50;99.90
30047;DHT22;16878;52.542;13.426;2023-01-08T15:08:23;8.50;99.90
30047;DHT22;16878;52.542;13.426;2023-01-08T15:10:56;8.50;99.90
30047;DHT22;16878;52.542;13.426;2023-01-08T15:13:23;8.50;99.90
30047;DHT22;16878;52.542;13.426;2023-01-08T15:15:52;8.50;99.90
30047;DHT22;16878;52.542;13.426;2023-01-08T15:18:17;8.50;99.90
30047;DHT22;16878;52.542;13.426;2023-01-08T15:20:43;8.50;99.90
30047;DHT22;16878;52.542;13.426;2023-01-08T15:23:22;8.50;99.90
30047;DHT22;16878;52.542;13.426;2023-01-08T15:25:48;8.40;99.90
30047;DHT22;16878;52.542;13.426;2023-01-08T15:28:14;8.40;99.90
30047;DHT22;16878;52.542;13.426;2023-01-08T15:30:42;8.40;99.90
30047;DHT22;16878;52.542;13.426;2023-01-08T15:33:24;8.40;99.90
30047;DHT22;16878;52.542;13.426;2023-01-08T15:35:50;8.40;99.90
30047;DHT22;16878;52.542;13.426;2023-01-08T15:38:16;8.40;99.90
30047;DHT22;16878;52.542;13.426;2023-01-08T15:40:45;8.30;99.90
30047;DHT22;16878;52.542;13.426;2023-01-08T15:43:12;8.30;99.90
30047;DHT22;16878;52.542;13.426;2023-01-08T15:45:38;8.30;99.90
30047;DHT22;16878;52.542;13.426;2023-01-08T15:48:04;8.30;99.90
30047;DHT22;16878;52.542;13.426;2023-01-08T15:50:30;8.30;99.90
30047;DHT22;16878;52.542;13.426;2023-01-08T15:53:02;8.30;99.90
30047;DHT22;16878;52.542;13.426;2023-01-08T15:55:28;8.30;99.90
30047;DHT22;16878;52.542;13.426;2023-01-08T15:57:56;8.30;99.90
30047;DHT22;16878;52.542;13.426;2023-01-08T16:00:22;8.30;99.90
30047;DHT22;16878;52.542;13.426;2023-01-08T16:02:48;8.30;99.90
30047;DHT22;16878;52.542;13.426;2023-01-08T16:05:15;8.30;99.90
30047;DHT22;16878;52.542;13.426;2023-01-08T16:07:42;8.40;99.90
30047;DHT22;16878;52.542;13.426;2023-01-08T16:10:08;8.40;99.90
30047;DHT22;16878;52.542;13.426;2023-01-08T16:12:34;8.40;99.90
30047;DHT22;16878;52.542;13.426;2023-01-08T16:15:00;8.40;99.90
30047;DHT22;16878;52.542;13.426;2023-01-08T16:17:27;8.40;99.90
30047;DHT22;16878;52.542;13.426;2023-01-08T16:19:53;8.40;99.90
30047;DHT22;16878;52.542;13.426;2023-01-08T16:22:18;8.30;99.90
30047;DHT22;16878;52.542;13.426;2023-01-08T16:24:44;8.40;99.90
30047;DHT22;16878;52.542;13.426;2023-01-08T16:27:09;8.40;99.90
30047;DHT22;16878;52.542;13.426;2023-01-08T16:29:35;8.40;99.90
30047;DHT22;16878;52.542;13.426;2023-01-08T16:32:00;8.40;99.90
30047;DHT22;16878;52.542;13.426;2023-01-08T16:34:26;8.40;99.90
30047;DHT22;16878;52.542;13.426;2023-01-08T16:36:51;8.40;99.90
30047;DHT22;16878;52.542;13.426;2023-01-08T16:39:17;8.40;99.90
30047;DHT22;16878;52.542;13.426;2023-01-08T16:41:43;8.40;99.90
30047;DHT22;16878;52.542;13.426;2023-01-08T16:44:22;8.40;99.90
30047;DHT22;16878;52.542;13.426;2023-01-08T16:46:48;8.30;99.90
30047;DHT22;16878;52.542;13.426;2023-01-08T16:49:13;8.30;99.90
30047;DHT22;16878;52.542;13.426;2023-01-08T16:51:39;8.20;99.90
30047;DHT22;16878;52.542;13.426;2023-01-08T16:54:05;8.20;99.90
30047;DHT22;16878;52.542;13.426;2023-01-08T16:56:31;8.20;99.90
30047;DHT22;16878;52.542;13.426;2023-01-08T16:58:56;8.20;99.90
30047;DHT22;16878;52.542;13.426;2023-01-08T17:01:22;8.30;99.90
30047;DHT22;16878;52.542;13.426;2023-01-08T17:03:47;8.20;99.90